createdAt,value
2018-05-10T00:01:01.326Z,100733.13
2018-05-10T00:03:31.055Z,100738.39
2018-05-10T00:06:00.395Z,100740.59
2018-05-10T00:08:31.823Z,100742.47
2018-05-10T00:11:01.209Z,100740.05
2018-05-10T00:13:30.347Z,100744.77
2018-05-10T00:16:01.319Z,100742.83
2018-05-10T00:18:31.012Z,100747.99
2018-05-10T00:21:00.189Z,100748.72
2018-05-10T00:23:31.564Z,100736.91
2018-05-10T00:26:02.444Z,100741.44
2018-05-10T00:28:33.179Z,100737.78
2018-05-10T00:31:03.507Z,100736.27
2018-05-10T00:33:34.207Z,100716.48
2018-05-10T00:36:05.974Z,100701.48
2018-05-10T00:38:38.443Z,100690.67
2018-05-10T00:41:08.405Z,100684.02
2018-05-10T00:43:39.258Z,100683.77
2018-05-10T00:46:08.744Z,100680.59
2018-05-10T00:48:40.219Z,100684.50
2018-05-10T00:51:11.243Z,100680.44
2018-05-10T00:53:42.292Z,100693.89
2018-05-10T00:56:13.238Z,100704.29
2018-05-10T00:58:43.907Z,100713.02
2018-05-10T01:01:14.739Z,100727.39
2018-05-10T01:03:44.697Z,100729.94
2018-05-10T01:06:15.181Z,100729.69
2018-05-10T01:08:46.635Z,100731.31
2018-05-10T01:11:15.675Z,100741.92
2018-05-10T01:13:46.365Z,100752.44
2018-05-10T01:16:17.553Z,100759.11
2018-05-10T01:18:46.577Z,100757.58
2018-05-10T01:21:17.660Z,100760.12
2018-05-10T01:23:49.117Z,100756.05
2018-05-10T01:26:18.605Z,100759.47
2018-05-10T01:28:49.451Z,100754.80
2018-05-10T01:31:20.822Z,100750.02
2018-05-10T01:33:49.975Z,100744.39
2018-05-10T01:36:22.045Z,100758.65
2018-05-10T01:38:52.467Z,100765.31
2018-05-10T01:41:23.394Z,100758.38
2018-05-10T01:43:52.934Z,100766.34
2018-05-10T01:46:22.014Z,100766.89
2018-05-10T01:48:53.068Z,100768.06
2018-05-10T01:51:22.193Z,100772.73
2018-05-10T01:53:52.996Z,100766.31
2018-05-10T01:56:24.101Z,100760.35
2018-05-10T01:58:53.786Z,100760.84
2018-05-10T02:01:23.473Z,100760.00
2018-05-10T02:03:54.504Z,100763.56
2018-05-10T02:06:25.411Z,100767.73
2018-05-10T02:08:56.407Z,100771.64
2018-05-10T02:11:27.920Z,100778.12
2018-05-10T02:13:58.222Z,100784.58
2018-05-10T02:16:28.267Z,100776.59
2018-05-10T02:18:59.237Z,100774.80
2018-05-10T02:21:28.132Z,100783.42
2018-05-10T02:23:57.498Z,100787.31
2018-05-10T02:26:26.745Z,100790.64
2018-05-10T02:28:57.703Z,100800.53
2018-05-10T02:31:27.376Z,100808.79
2018-05-10T02:33:58.948Z,100817.58
2018-05-10T02:36:30.665Z,100820.79
2018-05-10T02:39:01.530Z,100823.33
2018-05-10T02:41:32.832Z,100826.84
2018-05-10T02:44:02.245Z,100827.64
2018-05-10T02:46:31.628Z,100836.66
2018-05-10T02:49:02.480Z,100830.47
2018-05-10T02:51:31.950Z,100825.52
2018-05-10T02:54:01.224Z,100830.11
2018-05-10T02:56:32.207Z,100827.80
2018-05-10T02:59:01.860Z,100823.04
2018-05-10T03:01:34.131Z,100825.67
2018-05-10T03:04:05.378Z,100824.47
2018-05-10T03:06:34.651Z,100832.53
2018-05-10T03:09:05.509Z,100835.86
2018-05-10T03:11:37.137Z,100836.30
2018-05-10T03:14:07.839Z,100838.77
2018-05-10T03:16:37.240Z,100844.72
2018-05-10T03:19:09.732Z,100844.41
2018-05-10T03:21:39.132Z,100844.08
2018-05-10T03:24:10.098Z,100841.86
2018-05-10T03:26:41.233Z,100839.44
2018-05-10T03:29:12.619Z,100839.41
2018-05-10T03:31:43.526Z,100831.98
2018-05-10T03:34:12.880Z,100817.01
2018-05-10T03:36:42.740Z,100808.84
2018-05-10T03:39:11.964Z,100795.31
2018-05-10T03:41:43.460Z,100780.61
2018-05-10T03:44:14.314Z,100770.30
2018-05-10T03:46:46.278Z,100769.05
2018-05-10T03:49:17.385Z,100772.77
2018-05-10T03:51:47.380Z,100773.48
2018-05-10T03:54:17.071Z,100761.36
2018-05-10T03:56:46.238Z,100761.19
2018-05-10T03:59:17.353Z,100756.33
2018-05-10T04:01:46.526Z,100768.98
2018-05-10T04:04:57.965Z,100767.66
2018-05-10T04:08:04.695Z,100776.05
2018-05-10T04:11:21.818Z,100785.14
2018-05-10T04:13:52.928Z,100789.55
2018-05-10T04:16:25.063Z,100791.75
2018-05-10T04:18:56.216Z,100796.91
2018-05-10T04:21:26.638Z,100808.38
2018-05-10T04:23:56.348Z,100810.95
2018-05-10T04:26:27.093Z,100818.52
2018-05-10T04:28:56.805Z,100827.41
2018-05-10T04:31:27.747Z,100826.53
2018-05-10T04:33:57.149Z,100831.28
2018-05-10T04:36:27.185Z,100838.97
2018-05-10T04:38:57.137Z,100842.73
2018-05-10T04:41:28.155Z,100844.56
2018-05-10T04:44:00.275Z,100850.66
2018-05-10T04:46:29.346Z,100851.70
2018-05-10T04:48:59.134Z,100856.59
2018-05-10T04:51:29.106Z,100867.98
2018-05-10T04:54:00.171Z,100868.53
2018-05-10T04:56:31.242Z,100869.17
2018-05-10T04:59:00.292Z,100878.20
2018-05-10T05:01:29.531Z,100878.64
2018-05-10T05:04:00.624Z,100886.25
2018-05-10T05:06:30.439Z,100888.13
2018-05-10T05:08:59.685Z,100892.00
2018-05-10T05:11:29.201Z,100891.66
2018-05-10T05:13:59.932Z,100894.66
2018-05-10T05:16:31.024Z,100890.31
2018-05-10T05:19:01.050Z,100883.69
2018-05-10T05:21:30.610Z,100877.13
2018-05-10T05:24:01.889Z,100886.87
2018-05-10T05:26:32.230Z,100882.92
2018-05-10T05:29:03.260Z,100885.92
2018-05-10T05:31:32.573Z,100883.61
2018-05-10T05:34:03.225Z,100885.09
2018-05-10T05:36:32.655Z,100881.58
2018-05-10T05:39:03.093Z,100891.64
2018-05-10T05:41:34.248Z,100887.30
2018-05-10T05:44:06.412Z,100895.70
2018-05-10T05:46:36.881Z,100881.80
2018-05-10T05:49:07.541Z,100885.05
2018-05-10T05:51:39.651Z,100874.05
2018-05-10T05:54:08.986Z,100886.41
2018-05-10T05:56:40.892Z,100890.39
2018-05-10T05:59:12.395Z,100892.62
2018-05-10T06:01:43.252Z,100897.05
2018-05-10T06:04:14.716Z,100900.67
2018-05-10T06:06:44.480Z,100903.69
2018-05-10T06:09:15.262Z,100915.63
2018-05-10T06:11:44.533Z,100913.14
2018-05-10T06:14:15.219Z,100915.81
2018-05-10T06:16:45.088Z,100917.89
2018-05-10T06:19:14.473Z,100924.71
2018-05-10T06:21:45.421Z,100945.52
2018-05-10T06:24:16.313Z,100948.30
2018-05-10T06:26:47.496Z,100944.27
2018-05-10T06:29:17.002Z,100952.80
2018-05-10T06:31:47.967Z,100954.11
2018-05-10T06:34:17.622Z,100954.88
2018-05-10T06:36:46.790Z,100953.83
2018-05-10T06:39:17.043Z,100956.34
2018-05-10T06:41:46.073Z,100953.45
2018-05-10T06:44:16.952Z,100960.67
2018-05-10T06:46:47.789Z,100954.16
2018-05-10T06:49:18.024Z,100963.88
2018-05-10T06:51:48.881Z,100966.87
2018-05-10T06:54:18.404Z,100976.51
2018-05-10T06:56:48.385Z,100977.62
2018-05-10T06:59:17.706Z,100980.48
2018-05-10T07:01:47.414Z,100981.46
2018-05-10T07:04:18.489Z,100985.80
2018-05-10T07:06:48.456Z,100985.30
2018-05-10T07:09:19.051Z,100997.92
2018-05-10T07:11:49.961Z,101001.55
2018-05-10T07:14:21.125Z,101002.66
2018-05-10T07:16:51.030Z,101006.71
2018-05-10T07:19:20.491Z,101008.75
2018-05-10T07:21:49.923Z,101007.00
2018-05-10T07:24:21.359Z,101018.19
2018-05-10T07:26:50.839Z,101017.73
2018-05-10T07:29:22.342Z,101013.84
2018-05-10T07:31:53.036Z,101009.26
2018-05-10T07:34:24.356Z,101012.45
2018-05-10T07:36:53.819Z,101012.11
2018-05-10T07:39:24.747Z,101018.89
2018-05-10T07:41:54.094Z,101021.28
2018-05-10T07:44:24.440Z,101013.11
2018-05-10T07:46:55.399Z,101017.30
2018-05-10T07:49:25.126Z,101022.31
2018-05-10T07:51:54.640Z,101021.59
2018-05-10T07:54:24.036Z,101017.38
2018-05-10T07:56:55.944Z,101019.74
2018-05-10T07:59:27.510Z,101013.37
2018-05-10T08:01:57.232Z,101022.72
2018-05-10T08:04:28.171Z,101019.08
2018-05-10T08:06:59.044Z,101023.99
2018-05-10T08:09:29.424Z,101032.17
2018-05-10T08:12:00.889Z,101035.48
2018-05-10T08:14:30.095Z,101039.92
2018-05-10T08:17:01.318Z,101046.47
2018-05-10T08:19:32.014Z,101054.14
2018-05-10T08:22:02.924Z,101057.16
2018-05-10T08:24:33.876Z,101055.70
2018-05-10T08:27:03.500Z,101060.47
2018-05-10T08:29:34.881Z,101065.70
2018-05-10T08:32:04.821Z,101068.30
2018-05-10T08:34:36.427Z,101072.05
2018-05-10T08:37:05.520Z,101075.30
2018-05-10T08:39:35.425Z,101064.83
2018-05-10T08:42:07.107Z,101065.36
2018-05-10T08:44:39.202Z,101064.70
2018-05-10T08:47:10.087Z,101064.67
2018-05-10T08:49:41.150Z,101075.59
2018-05-10T08:52:11.827Z,101076.25
2018-05-10T08:54:42.252Z,101084.43
2018-05-10T08:57:13.579Z,101085.28
2018-05-10T08:59:42.990Z,101076.94
2018-05-10T09:02:13.705Z,101074.42
2018-05-10T09:04:42.977Z,101078.20
2018-05-10T09:07:14.901Z,101078.98
2018-05-10T09:09:44.618Z,101077.00
2018-05-10T09:12:16.295Z,101080.48
2018-05-10T09:14:45.384Z,101080.16
2018-05-10T09:17:15.862Z,101078.01
2018-05-10T09:19:45.099Z,101083.64
2018-05-10T09:22:14.446Z,101086.46
2018-05-10T09:24:44.212Z,101083.98
2018-05-10T09:27:14.266Z,101090.52
2018-05-10T09:29:44.986Z,101099.25
2018-05-10T09:32:15.625Z,101100.19
2018-05-10T09:34:45.770Z,101104.40
2018-05-10T09:37:16.775Z,101106.89
2018-05-10T09:39:46.351Z,101106.18
2018-05-10T09:42:15.808Z,101109.09
2018-05-10T09:44:46.745Z,101121.45
2018-05-10T09:47:17.588Z,101121.91
2018-05-10T09:49:47.450Z,101128.98
2018-05-10T09:52:17.314Z,101128.09
2018-05-10T09:54:47.163Z,101132.65
2018-05-10T09:57:18.651Z,101134.89
2018-05-10T09:59:49.604Z,101130.11
2018-05-10T10:02:18.669Z,101135.77
2018-05-10T10:04:50.111Z,101134.39
2018-05-10T10:07:19.991Z,101144.05
2018-05-10T10:09:51.176Z,101146.80
2018-05-10T10:12:22.034Z,101152.64
2018-05-10T10:14:52.389Z,101138.82
2018-05-10T10:17:23.254Z,101154.39
2018-05-10T10:19:53.962Z,101154.81
2018-05-10T10:22:24.764Z,101153.00
2018-05-10T10:24:54.038Z,101155.39
2018-05-10T10:27:24.952Z,101159.48
2018-05-10T10:29:56.014Z,101168.20
2018-05-10T10:32:27.244Z,101167.99
2018-05-10T10:34:58.212Z,101172.39
2018-05-10T10:37:27.575Z,101178.39
2018-05-10T10:39:58.549Z,101184.12
2018-05-10T10:42:27.618Z,101185.41
2018-05-10T10:44:56.998Z,101188.30
2018-05-10T10:47:26.566Z,101184.97
2018-05-10T10:49:56.255Z,101186.03
2018-05-10T10:52:25.913Z,101187.75
2018-05-10T10:54:54.953Z,101191.30
2018-05-10T10:57:24.338Z,101196.70
2018-05-10T10:59:53.539Z,101204.29
2018-05-10T11:02:24.315Z,101205.97
2018-05-10T11:04:55.143Z,101205.14
2018-05-10T11:07:24.696Z,101209.02
2018-05-10T11:09:53.796Z,101219.25
2018-05-10T11:12:23.252Z,101222.42
2018-05-10T11:14:54.232Z,101220.88
2018-05-10T11:17:23.534Z,101232.30
2018-05-10T11:19:54.455Z,101240.97
2018-05-10T11:22:25.862Z,101249.91
2018-05-10T11:24:56.200Z,101246.57
2018-05-10T11:27:25.605Z,101252.48
2018-05-10T11:29:56.475Z,101260.91
2018-05-10T11:32:27.213Z,101263.93
2018-05-10T11:34:58.715Z,101271.26
2018-05-10T11:37:29.509Z,101274.30
2018-05-10T11:39:58.670Z,101285.45
2018-05-10T11:42:27.947Z,101286.12
2018-05-10T11:44:58.705Z,101294.72
2018-05-10T11:47:29.582Z,101297.00
2018-05-10T11:50:00.826Z,101313.69
2018-05-10T11:52:29.996Z,101319.91
2018-05-10T11:54:59.811Z,101328.85
2018-05-10T11:57:30.582Z,101325.37
2018-05-10T11:59:59.927Z,101325.89
2018-05-10T12:02:28.982Z,101323.88
2018-05-10T12:05:00.008Z,101328.55
2018-05-10T12:07:31.828Z,101333.96
2018-05-10T12:10:00.999Z,101339.23
2018-05-10T12:12:32.216Z,101338.92
2018-05-10T12:15:02.170Z,101350.61
2018-05-10T12:17:32.020Z,101350.19
2018-05-10T12:20:02.862Z,101350.63
2018-05-10T12:22:31.879Z,101342.67
2018-05-10T12:25:01.716Z,101359.15
2018-05-10T12:27:30.880Z,101356.95
2018-05-10T12:30:01.416Z,101361.41
2018-05-10T12:32:31.309Z,101366.41
2018-05-10T12:35:00.212Z,101371.42
2018-05-10T12:37:29.623Z,101378.05
2018-05-10T12:40:00.715Z,101378.29
2018-05-10T12:42:30.806Z,101386.89
2018-05-10T12:45:01.701Z,101389.91
2018-05-10T12:47:30.862Z,101382.83
2018-05-10T12:50:02.375Z,101395.11
2018-05-10T12:52:31.834Z,101404.53
2018-05-10T12:55:02.613Z,101403.09
2018-05-10T12:57:33.330Z,101406.67
2018-05-10T13:00:05.704Z,101421.34
2018-05-10T13:02:36.952Z,101421.59
2018-05-10T13:05:07.610Z,101424.46
2018-05-10T13:07:36.687Z,101435.00
2018-05-10T13:10:07.738Z,101427.48
2018-05-10T13:12:38.677Z,101440.40
2018-05-10T13:15:09.794Z,101435.47
2018-05-10T13:17:38.926Z,101438.64
2018-05-10T13:20:08.350Z,101437.14
2018-05-10T13:22:39.023Z,101455.28
2018-05-10T13:25:08.370Z,101459.27
2018-05-10T13:27:38.385Z,101466.50
2018-05-10T13:30:08.401Z,101462.20
2018-05-10T13:32:38.980Z,101468.17
2018-05-10T13:35:08.355Z,101472.43
2018-05-10T13:37:38.212Z,101476.95
2018-05-10T13:40:08.129Z,101484.47
2018-05-10T13:42:37.552Z,101483.95
2018-05-10T13:45:08.455Z,101494.77
2018-05-10T13:47:39.941Z,101491.30
2018-05-10T13:50:11.105Z,101498.28
2018-05-10T13:52:41.074Z,101497.13
2018-05-10T13:55:11.828Z,101506.89
2018-05-10T13:57:42.451Z,101510.98
2018-05-10T14:00:11.813Z,101517.64
2018-05-10T14:02:42.875Z,101522.41
2018-05-10T14:05:14.328Z,101530.54
2018-05-10T14:07:45.541Z,101523.30
2018-05-10T14:10:14.559Z,101528.41
2018-05-10T14:12:45.575Z,101535.78
2018-05-10T14:15:16.907Z,101529.85
2018-05-10T14:17:46.262Z,101542.19
2018-05-10T14:20:17.447Z,101542.70
2018-05-10T14:22:47.120Z,101555.05
2018-05-10T14:25:17.890Z,101561.55
2018-05-10T14:27:48.747Z,101556.23
2018-05-10T14:30:19.683Z,101548.28
2018-05-10T14:32:50.426Z,101551.08
2018-05-10T14:35:21.394Z,101565.60
2018-05-10T14:37:51.316Z,101565.23
2018-05-10T14:40:21.210Z,101558.20
2018-05-10T14:42:52.602Z,101557.17
2018-05-10T14:45:22.236Z,101561.70
2018-05-10T14:47:52.046Z,101568.63
2018-05-10T14:50:23.903Z,101572.45
2018-05-10T14:52:54.401Z,101572.00
2018-05-10T14:55:24.831Z,101565.92
2018-05-10T14:57:55.695Z,101568.09
2018-05-10T15:00:25.419Z,101571.27
2018-05-10T15:02:56.152Z,101574.25
2018-05-10T15:05:25.866Z,101580.02
2018-05-10T15:07:55.298Z,101580.78
2018-05-10T15:10:26.205Z,101586.75
2018-05-10T15:12:57.584Z,101592.92
2018-05-10T15:15:28.491Z,101594.41
2018-05-10T15:17:59.553Z,101591.65
2018-05-10T15:20:30.530Z,101607.69
2018-05-10T15:23:00.131Z,101605.28
2018-05-10T15:25:30.582Z,101615.48
2018-05-10T15:28:01.811Z,101619.16
2018-05-10T15:30:32.172Z,101612.91
2018-05-10T15:33:02.826Z,101625.81
2018-05-10T15:35:33.918Z,101623.40
2018-05-10T15:38:03.290Z,101635.92
2018-05-10T15:40:33.737Z,101629.99
2018-05-10T15:43:03.251Z,101638.14
2018-05-10T15:45:35.191Z,101632.95
2018-05-10T15:48:06.071Z,101649.28
2018-05-10T15:50:36.083Z,101656.52
2018-05-10T15:53:06.767Z,101661.16
2018-05-10T15:55:36.143Z,101673.93
2018-05-10T15:58:06.963Z,101667.16
2018-05-10T16:00:36.022Z,101673.03
2018-05-10T16:03:08.124Z,101682.48
2018-05-10T16:05:39.568Z,101685.89
2018-05-10T16:08:10.453Z,101692.95
2018-05-10T16:10:41.073Z,101693.14
2018-05-10T16:13:12.576Z,101698.94
2018-05-10T16:15:44.459Z,101703.70
2018-05-10T16:18:15.232Z,101706.53
2018-05-10T16:20:44.370Z,101706.10
2018-05-10T16:23:15.267Z,101714.16
2018-05-10T16:25:44.375Z,101723.91
2018-05-10T16:28:13.922Z,101729.45
2018-05-10T16:30:43.083Z,101736.91
2018-05-10T16:33:13.996Z,101740.55
2018-05-10T16:35:43.106Z,101740.34
2018-05-10T16:38:14.044Z,101742.78
2018-05-10T16:40:45.496Z,101749.17
2018-05-10T16:43:16.984Z,101755.00
2018-05-10T16:45:46.095Z,101757.86
2018-05-10T16:48:17.614Z,101758.06
2018-05-10T16:50:49.664Z,101763.72
2018-05-10T16:53:19.010Z,101770.14
2018-05-10T16:55:49.687Z,101780.70
2018-05-10T16:58:18.885Z,101789.33
2018-05-10T17:00:48.820Z,101789.59
2018-05-10T17:03:19.447Z,101793.86
2018-05-10T17:05:49.185Z,101799.45
2018-05-10T17:08:20.194Z,101800.45
2018-05-10T17:10:49.610Z,101799.29
2018-05-10T17:13:19.068Z,101813.52
2018-05-10T17:15:48.373Z,101808.81
2018-05-10T17:18:17.699Z,101803.94
2018-05-10T17:20:48.662Z,101812.30
2018-05-10T17:23:19.384Z,101826.30
2018-05-10T17:25:50.500Z,101826.95
2018-05-10T17:28:21.518Z,101827.63
2018-05-10T17:30:52.167Z,101828.00
2018-05-10T17:33:25.498Z,101833.84
2018-05-10T17:35:55.257Z,101839.09
2018-05-10T17:38:24.601Z,101839.73
2018-05-10T17:40:55.407Z,101844.64
2018-05-10T17:43:25.842Z,101859.66
2018-05-10T17:45:55.698Z,101860.46
2018-05-10T17:48:26.441Z,101865.90
2018-05-10T17:50:57.651Z,101869.87
2018-05-10T17:53:28.956Z,101875.18
2018-05-10T17:55:59.656Z,101878.52
2018-05-10T17:58:31.002Z,101886.75
2018-05-10T18:01:01.745Z,101890.57
2018-05-10T18:03:32.346Z,101895.23
2018-05-10T18:06:03.309Z,101892.06
2018-05-10T18:08:32.662Z,101891.25
2018-05-10T18:11:03.930Z,101902.47
2018-05-10T18:13:33.396Z,101904.11
2018-05-10T18:16:02.715Z,101908.27
2018-05-10T18:18:33.378Z,101908.33
2018-05-10T18:21:04.012Z,101918.93
2018-05-10T18:23:33.929Z,101921.02
2018-05-10T18:26:04.731Z,101918.84
2018-05-10T18:28:35.977Z,101923.26
2018-05-10T18:31:06.894Z,101925.27
2018-05-10T18:33:37.723Z,101932.96
2018-05-10T18:36:08.910Z,101935.37
2018-05-10T18:38:38.337Z,101937.69
2018-05-10T18:41:07.424Z,101934.39
2018-05-10T18:43:36.851Z,101945.23
2018-05-10T18:46:05.941Z,101951.21
2018-05-10T18:48:37.418Z,101948.66
2018-05-10T18:51:08.327Z,101950.67
2018-05-10T18:53:37.543Z,101958.63
2018-05-10T18:56:06.922Z,101961.84
2018-05-10T18:58:36.342Z,101972.08
2018-05-10T19:01:06.079Z,101975.78
2018-05-10T19:03:36.889Z,101973.15
2018-05-10T19:06:08.449Z,101978.73
2018-05-10T19:08:39.375Z,101981.95
2018-05-10T19:11:10.764Z,101989.77
2018-05-10T19:13:40.702Z,101990.63
2018-05-10T19:16:10.163Z,101995.74
2018-05-10T19:18:40.961Z,102003.83
2018-05-10T19:21:10.996Z,102002.08
2018-05-10T19:23:40.728Z,102012.15
2018-05-10T19:26:12.211Z,102014.80
2018-05-10T19:28:42.240Z,102022.03
2018-05-10T19:31:12.254Z,102019.43
2018-05-10T19:33:43.232Z,102024.89
2018-05-10T19:36:14.041Z,102026.18
2018-05-10T19:38:43.818Z,102030.10
2018-05-10T19:41:15.346Z,102038.62
2018-05-10T19:43:44.698Z,102043.31
2018-05-10T19:46:14.179Z,102044.60
2018-05-10T19:48:46.161Z,102049.34
2018-05-10T19:51:15.664Z,102043.53
2018-05-10T19:53:44.934Z,102049.00
2018-05-10T19:56:15.947Z,102060.72
2018-05-10T19:58:45.335Z,102063.78
2018-05-10T20:01:16.370Z,102068.94
2018-05-10T20:03:47.459Z,102072.03
2018-05-10T20:06:18.461Z,102069.55
2018-05-10T20:08:48.996Z,102070.16
2018-05-10T20:11:20.161Z,102071.64
2018-05-10T20:13:49.495Z,102072.89
2018-05-10T20:16:18.240Z,102082.83
2018-05-10T20:18:48.541Z,102088.27
2018-05-10T20:21:19.584Z,102086.55
2018-05-10T20:23:48.703Z,102094.58
2018-05-10T20:26:18.883Z,102091.65
2018-05-10T20:28:47.672Z,102097.38
2018-05-10T20:31:18.294Z,102101.34
2018-05-10T20:33:47.710Z,102111.17
2018-05-10T20:36:16.832Z,102115.00
2018-05-10T20:38:46.330Z,102108.03
2018-05-10T20:41:17.532Z,102113.61
2018-05-10T20:43:48.132Z,102112.44
2018-05-10T20:46:17.499Z,102108.72
2018-05-10T20:48:48.306Z,102113.91
2018-05-10T20:51:18.944Z,102111.83
2018-05-10T20:53:50.625Z,102114.18
2018-05-10T20:56:21.464Z,102113.76
2018-05-10T20:58:52.636Z,102119.73
2018-05-10T21:01:22.708Z,102121.34
2018-05-10T21:03:54.174Z,102121.98
2018-05-10T21:06:23.412Z,102128.48
2018-05-10T21:08:55.013Z,102133.88
2018-05-10T21:11:24.734Z,102138.30
2018-05-10T21:13:54.985Z,102141.00
2018-05-10T21:16:26.448Z,102145.37
2018-05-10T21:18:57.467Z,102141.41
2018-05-10T21:21:26.722Z,102143.52
2018-05-10T21:23:55.936Z,102148.94
2018-05-10T21:26:25.461Z,102150.53
2018-05-10T21:28:54.514Z,102156.00
2018-05-10T21:31:23.733Z,102160.72
2018-05-10T21:33:53.134Z,102158.84
2018-05-10T21:36:23.445Z,102162.34
2018-05-10T21:38:54.215Z,102165.60
2018-05-10T21:41:24.728Z,102165.52
2018-05-10T21:43:55.933Z,102161.27
2018-05-10T21:46:24.980Z,102164.10
2018-05-10T21:48:56.641Z,102154.27
2018-05-10T21:51:27.577Z,102157.49
2018-05-10T21:53:58.155Z,102155.92
2018-05-10T21:56:27.597Z,102160.95
2018-05-10T21:58:56.996Z,102160.13
2018-05-10T22:01:28.338Z,102163.89
2018-05-10T22:04:00.021Z,102167.82
2018-05-10T22:06:29.306Z,102163.89
2018-05-10T22:09:00.159Z,102165.61
2018-05-10T22:11:29.681Z,102164.31
2018-05-10T22:13:59.220Z,102168.42
2018-05-10T22:16:31.749Z,102166.97
2018-05-10T22:19:01.297Z,102173.14
2018-05-10T22:21:32.284Z,102163.98
2018-05-10T22:24:03.466Z,102170.42
2018-05-10T22:26:32.741Z,102165.03
2018-05-10T22:29:03.675Z,102167.73
2018-05-10T22:31:33.595Z,102166.34
2018-05-10T22:34:03.812Z,102173.46
2018-05-10T22:36:34.564Z,102163.82
2018-05-10T22:39:04.713Z,102170.42
2018-05-10T22:41:35.411Z,102170.39
2018-05-10T22:44:06.100Z,102170.01
2018-05-10T22:46:35.485Z,102167.05
2018-05-10T22:49:06.125Z,102166.45
2018-05-10T22:51:35.429Z,102167.53
2018-05-10T22:54:06.282Z,102167.70
2018-05-10T22:56:35.787Z,102166.28
2018-05-10T22:59:05.711Z,102163.98
2018-05-10T23:01:36.040Z,102172.58
2018-05-10T23:04:08.764Z,102169.44
2018-05-10T23:06:38.117Z,102175.17
2018-05-10T23:09:07.815Z,102176.84
2018-05-10T23:11:38.808Z,102175.58
2018-05-10T23:14:08.113Z,102179.15
2018-05-10T23:16:38.672Z,102186.13
2018-05-10T23:19:09.414Z,102182.22
2018-05-10T23:21:39.022Z,102189.17
2018-05-10T23:24:10.447Z,102185.27
2018-05-10T23:26:41.634Z,102181.28
2018-05-10T23:29:11.109Z,102183.33
2018-05-10T23:31:41.945Z,102185.55
2018-05-10T23:34:12.570Z,102190.50
2018-05-10T23:36:42.885Z,102189.55
2018-05-10T23:39:13.905Z,102191.98
2018-05-10T23:41:44.516Z,102188.94
2018-05-10T23:44:13.726Z,102189.50
2018-05-10T23:46:44.883Z,102190.00
2018-05-10T23:49:15.740Z,102194.50
2018-05-10T23:51:46.351Z,102201.00
2018-05-10T23:54:17.099Z,102197.50
2018-05-10T23:56:46.266Z,102197.52
2018-05-10T23:59:16.117Z,102197.22
